Whale Point, California Weather observations

Data are for observation ending at time listed.
 Day   Time    Ave.   Ave.  Ave.  Vector   Max.   Stn.    Total    Solar   Ave.  
  of    of     Air    Rel.  Wind   Wind    Wind   Baro.  Precip.   Rad.    Soil  
Year   Day     Temp.  Hum.  Speed  Dir.    Gust   Pres.                    Temp. 
2026   (PST)    F      %     mph   deg.    mph     mb.     in.     W/m2     F   
------------------------------------------------------------------------------
 128    9:50   35.7    82    4.2   224      6.5   996.5    0.00    1105    65.2
 128   10:00   36.0    83    3.2   196      5.3   996.5    0.00    1060    65.2
 128   10:10   36.9    81    4.2   217      6.2   996.5    0.00     916    65.2
 128   10:20   37.2    82    4.9   214      7.5   996.6    0.00     828    65.3
 128   10:30   38.2    81    4.3   217      6.8   996.6    0.00     752    65.4
 128   10:40   39.3    80    4.8   214      7.7   996.6    0.00     697    65.4
 128   10:50   40.7    80    4.6   217      6.9   996.5    0.00     664    65.4
 128   11:00   42.1    79    5.0   213      7.9   996.5    0.00     631    65.4
 128   11:10   42.8    79    5.2   212      7.2   996.4    0.00     635    65.4
 128   11:20   44.0    78    4.9   213      7.3   996.4    0.00     641    65.5
 128   11:30   45.2    77    4.9   218      8.6   996.3    0.00     663    65.5
 128   11:40   46.5    75    3.7   219      8.0   996.2    0.00     659    65.6
 128   11:50   47.8    74    3.5   185      6.2   996.2    0.00     645    65.6
 128   12:00   50.3    67    3.3   206      7.1   996.1    0.00     554    65.6
 128   12:10   49.2    71    5.7   216      9.3   996.0    0.00     612    65.7
 128   12:20   48.8    73    4.5   210      8.6   995.9    0.00     665    65.7
 128   12:30   50.0    71    5.1   205      8.6   995.7    0.00     664    65.8
 128   12:40   51.5    71    4.5   220      9.4   995.7    0.00     736    65.9
 128   12:50   51.6    72    5.7   224      8.6   995.7    0.00     730    66.0
 128   13:00   52.8    72    4.8   224     10.2   995.6    0.00     749    66.1
 128   13:10   53.9    72    5.2   230      9.6   995.5    0.00     793    66.2
 128   13:20   55.0    69    4.4   221      8.3   995.4    0.00     805    66.3
 128   13:30   55.7    68    4.2   219      7.9   995.3    0.00     834    66.5
 128   13:40   56.8    66    3.5   220      6.8   995.3    0.00     788    66.6
 128   13:50   57.3    65    4.5   224      8.8   995.2    0.00     741    66.7
 128   14:00   57.5    63    5.3   219      8.5   995.2    0.00     683    66.9
 128   14:10   56.0    67    5.6   218      9.2   995.0    0.00     676    67.1
 128   14:20   56.3    66    5.4   229      9.1   995.0    0.00     657    67.2
 128   14:30   56.7    66    4.5   231      9.0   994.9    0.00     680    67.4
 128   14:40   57.7    64    4.0   231      8.6   994.9    0.00     641    67.6
 128   14:50   56.3    68    4.8   233      8.8   994.7    0.00     657    67.7
 128   15:00   56.3    68    4.8   227      8.7   994.5    0.00     634    67.9
 128   15:10   56.1    69    4.2   214      8.8   994.2    0.00     683    68.1
 128   15:20   56.4    68    4.8   217      9.3   994.1    0.00     673    68.3
 128   15:30   56.9    68    4.4   223      8.6   994.0    0.00     663    68.4
 128   15:40   55.9    70    5.4   221      9.3   994.0    0.00     706    68.6
 128   15:50   55.7    71    4.3   226      8.8   994.0    0.00     752    68.8
 128   16:00   56.5    69    4.1   225      8.3   993.9    0.00     766    69.0
 128   16:10   57.1    67    3.7   218      6.7   993.8    0.00     770    69.1
 128   16:20   57.5    67    4.9   212      8.6   993.8    0.00     774    69.3
 128   16:30   57.4    67    3.6   226      7.3   993.8    0.00     802    69.4
 128   16:40   56.8    68    4.1   215      7.7   993.6    0.00     856    69.6
 128   16:50   57.2    67    3.5   221      6.7   993.6    0.00     879    69.7
 128   17:00   57.4    67    4.5   221      8.2   993.4    0.00     923    69.9
 128   17:10   56.4    70    3.7   226      6.7   993.2    0.00    1029    70.0
 128   17:20   56.1    71    3.4   227      5.9   993.3    0.00    1080    70.2
 128   17:30   56.0    71    4.0   220      6.9   993.3    0.00    1168    70.3
 128   17:40   56.1    71    3.3   219      6.6   993.2    0.00    1224    70.4
 128   17:50   54.8    75    3.4   209      6.1   993.1    0.00    1335    70.5
 128   18:00   54.9    76    3.0   215      6.2   993.0    0.00    1393    70.5
 128   18:10   55.1    76    3.1   208      6.2   992.9    0.00    1465    70.6
 128   18:20   54.7    76    3.1   186      5.4   992.9    0.00    1524    70.7
 128   18:30   54.2    79    2.6   178      5.0   992.9    0.00    1610    70.7
 128   18:40   53.9    79    3.5   145      6.6   992.9    0.00    1690    70.8
 128   18:50   52.6    82    3.0   162      7.3   993.1    0.00    1744    70.8
 128   19:00   51.5    86    2.7   139      5.6   993.1    0.00    1816    70.9
 128   19:10   51.0    88    3.4   139      5.3   993.1    0.00    1909    70.9
 128   19:20   50.6    90    2.3   119      5.0   993.1    0.00    2030    70.9
 128   19:30   50.4    91    2.0   158      5.0   993.1    0.00    2140    70.8
 128   19:40   50.3    91    1.8   157      3.2   993.1    0.00    2259    70.8
 128   19:50   50.0    92    1.6   158      4.2   993.2    0.00    2343    70.8
 128   20:00   49.6    92    0.8   174      1.8   993.3    0.00    2432    70.8
 128   20:10   49.4    93    2.3   162      5.3   993.3    0.00    2518    70.7
 128   20:20   49.1    93    2.6   140      6.9   993.4    0.00    2622    70.6
 128   20:30   49.1    93    3.2   140      7.2   993.4    0.00    2723    70.6
 128   20:40   48.7    92    1.4   153      5.0   993.5    0.00    2788    70.5
 128   20:50   48.5    93    3.5   137      7.0   993.6    0.00    2824    70.4
 128   21:00   48.2    93    2.1   125      6.1   993.6    0.00    2885    70.4
 128   21:10   48.0    93    1.4   141      4.3   993.6    0.00    2914    70.2
 128   21:20   48.0    93    2.4   124      5.2   993.6    0.00    2987    70.1
 128   21:30   47.8    92    1.6   133      5.2   993.6    0.00    3030    70.1
 128   21:40   47.5    93    3.2   143      5.6   993.6    0.00    3047    70.0
 128   21:50   47.3    92    1.3   129      3.2   993.5    0.00    3100    69.9
 128   22:00   47.1    92    1.4   125      4.9   993.4    0.00    3097    69.8
 128   22:10   46.9    92    1.4   172      3.1   993.4    0.00    3098    69.7
 128   22:20   46.6    93    1.8   158      5.6   993.4    0.00    3133    69.6
 128   22:30   46.3    93    0.9   140      3.6   993.4    0.00    3167    69.5
 128   22:40   46.2    94    1.5   145      4.1   993.4    0.00    3195    69.4
 128   22:50   45.7    94    3.7    12      7.6   993.3    0.00    3197    69.3
 128   23:00   45.4    95    1.0   129      2.7   993.2    0.00    3212    69.2
 128   23:10   45.3    95    1.8   144      3.0   993.2    0.00    3213    69.2
 128   23:20   44.9    95    0.9   163      2.0   993.3    0.00    3237    69.0
 128   23:30   44.6    96    0.9   165      2.3   993.4    0.00    3229    68.9
 128   23:40   44.6    97    3.8   359      6.1   993.3    0.00    3328    68.8
 128   23:50   44.4   100    1.9   343      4.7   993.4    0.00    3373    68.7
 129    0:00   44.2   100    4.2    32      6.6   993.3    0.00    3405    68.6
 129    0:10   44.2   100    1.4    69      4.0   993.3    0.00    3357    68.5
 129    0:20   43.8   100    1.8     9      3.7   993.1    0.00    3279    68.4
 129    0:30   44.5   100    1.6   164      3.9   993.2    0.00    3276    68.3
 129    0:40   44.5   100    1.0   171      2.6   993.2    0.00    3274    68.3
 129    0:50   44.5   100    0.5    75      1.5   993.2    0.00    3202    68.2
 129    1:00   44.7    94    1.3    24      2.6   993.1    0.00    3141    68.1
 129    1:10   44.7    89    1.5   174      3.7   993.0    0.00    3121    68.0
 129    1:20   43.5    90    2.2   172      4.5   993.0    0.00    3078    67.9
 129    1:30   43.0    94    2.2   152      3.5   993.0    0.00    3081    67.8
 129    1:40   43.2    95    2.8   146      4.0   993.0    0.00    3133    67.7
 129    1:50   43.0    96    1.4   102      2.5   992.9    0.00    3125    67.6
 129    2:00   43.2    97    1.6   134      3.6   992.9    0.00    3110    67.6
 129    2:10   43.5    95    1.5   144      3.7   992.9    0.00    3123    67.5
 129    2:20   43.5    93    1.3   144      2.7   992.9    0.00    3136    67.4
 129    2:30   43.3    93    0.7   126      1.9   992.9    0.00    3077    67.3
 129    2:40   42.8    92    0.3   145      1.5   992.8    0.00    3064    67.2
 129    2:50   41.6    92    0.3   291      1.0   992.7    0.00    3058    67.1
 129    3:00   41.1    92    0.5   195      1.8   992.8    0.00    3098    67.1
 129    3:10   40.7    94    0.6   124      1.5   992.8    0.00    3131    67.0
 129    3:20   40.5    95    0.4    50      1.5   992.8    0.00    3158    66.9
 129    3:30   40.2    95    1.5     8      2.3   992.9    0.00    3185    66.8
 129    3:40   40.0    96    1.2    24      2.6   992.9    0.00    3223    66.7
 129    3:50   39.9    97    1.8    20      3.7   992.8    0.00    3235    66.6
 129    4:00   39.5    98    1.2   170      3.2   992.8    0.00    3229    66.6
 129    4:10   39.5   100    1.4   126      2.9   992.8    0.00    3229    66.5
 129    4:20   39.6   100    0.6    66      2.0   992.9    0.00    3229    66.4
 129    4:30   39.5   100    0.6    55      1.6   992.8    0.00    3186    66.3
 129    4:40   39.4   100    1.6   115      2.6   992.9    0.00    3202    66.2
 129    4:50   38.9   100    1.6   152      3.0   992.9    0.00    3177    66.2
 129    5:00   38.5   100    2.0   150      2.9   993.0    0.00    3169    66.1
 129    5:10   38.1   100    1.3   164      2.4   993.1    0.00    3163    66.0
 129    5:20   38.0   100    1.4   142      2.0   993.2    0.00    3180    65.9
 129    5:30   38.1   100    0.6    87      1.8   993.3    0.00    3188    65.9
 129    5:40   37.9   100    2.1    21      6.7   993.2    0.00    3196    65.8
 129    5:50   37.6   100    2.1   150      4.2   993.2    0.00    3217    65.7
 129    6:00   37.3   100    1.9   166      3.9   993.3    0.00    3207    65.6
 129    6:10   37.7   100    0.6    96      1.5   993.4    0.00    3205    65.5
 129    6:20   37.8   100    0.2   340      1.3   993.4    0.00    3197    65.5
 129    6:30   37.8   100    1.2   132      2.1   993.5    0.00    3152    65.4
 129    6:40   38.1   100    1.4   188      2.4   993.5    0.00    3148    65.3
 129    6:50   38.2   100    1.5   200      2.8   993.5    0.00    3022    65.2
 129    7:00   38.4   100    1.0   228      2.9   993.5    0.00    2974    65.2
 129    7:10   38.6   100    1.7   219      4.3   993.6    0.00    2826    65.1
 129    7:20   38.5   100    1.3   222      2.6   993.7    0.00    2654    65.0
 129    7:30   38.9   100    0.8   154      2.7   993.7    0.00    2484    65.0
 129    7:40   39.5    99    2.1   199      3.5   993.7    0.00    2232    64.9
 129    7:50   39.4    98    3.8   209      5.6   993.8    0.00    1998    64.9
 129    8:00   38.8    99    2.9   221      4.5   993.9    0.00    1923    64.8
 129    8:10   38.9   100    2.4   222      4.5   993.7    0.00    1922    64.8
 129    8:20   39.2   100    2.3   220      4.1   993.6    0.00    1879    64.8
 129    8:30   39.9    99    1.6   196      3.7   993.6    0.00    1760    64.7
 129    8:40   40.6    95    2.2   208      3.9   993.6    0.00    1514    64.7
 129    8:50   40.5    93    3.7   219      5.5   993.7    0.00    1342    64.7
 129    9:00   40.1    94    3.9   216      6.2   993.8    0.00    1263    64.7
 129    9:10   40.2    93    4.1   212      6.0   993.8    0.00    1242    64.7
 129    9:20   40.4    93    3.8   210      5.9   993.8    0.00    1216    64.7
 129    9:30   41.0    90    3.4   212      5.6   993.8    0.00    1135    64.7
 129    9:40   41.3    89    3.0   214      5.8   993.8    0.00    1052    64.7

Return to Whale Point graphs page.


Western Regional Climate Center,wrcc@dri.edu